createdAt,value
2023-03-04T00:00:07.332Z,12.50
2023-03-04T00:02:38.235Z,12.83
2023-03-04T00:05:07.133Z,11.10
2023-03-04T00:07:35.447Z,10.83
2023-03-04T00:10:03.629Z,11.93
2023-03-04T00:12:32.242Z,10.47
2023-03-04T00:15:00.332Z,12.03
2023-03-04T00:17:31.630Z,12.57
2023-03-04T00:19:59.779Z,12.43
2023-03-04T00:22:27.841Z,12.60
2023-03-04T00:24:55.912Z,12.33
2023-03-04T00:27:24.329Z,12.13
2023-03-04T00:29:52.414Z,13.27
2023-03-04T00:32:20.591Z,14.40
2023-03-04T00:34:50.117Z,12.40
2023-03-04T00:37:18.201Z,11.23
2023-03-04T00:39:46.420Z,10.37
2023-03-04T00:42:14.819Z,11.70
2023-03-04T00:44:42.931Z,12.37
2023-03-04T00:47:11.050Z,10.83
2023-03-04T00:49:39.125Z,9.90
2023-03-04T00:52:08.760Z,11.07
2023-03-04T00:54:37.105Z,10.50
2023-03-04T00:57:05.209Z,10.87
2023-03-04T00:59:33.433Z,10.97
2023-03-04T01:02:01.583Z,11.80
2023-03-04T01:04:31.350Z,10.83
2023-03-04T01:07:01.315Z,11.13
2023-03-04T01:09:31.912Z,11.27
2023-03-04T01:11:59.945Z,10.33
2023-03-04T01:14:28.134Z,10.57
2023-03-04T01:16:56.337Z,11.53
2023-03-04T01:19:24.576Z,10.43
2023-03-04T01:21:53.845Z,9.70
2023-03-04T01:24:23.281Z,10.23
2023-03-04T01:26:52.739Z,10.57
2023-03-04T01:29:22.836Z,9.47
2023-03-04T01:31:50.912Z,11.37
2023-03-04T01:34:21.816Z,10.63
2023-03-04T01:36:49.920Z,9.77
2023-03-04T01:39:19.982Z,9.87
2023-03-04T01:41:48.185Z,8.80
2023-03-04T01:44:17.718Z,10.30
2023-03-04T01:46:49.323Z,9.77
2023-03-04T01:49:17.924Z,10.77
2023-03-04T01:51:49.162Z,9.00
2023-03-04T01:54:17.324Z,10.03
2023-03-04T01:56:46.033Z,9.27
2023-03-04T01:59:15.131Z,9.23
2023-03-04T02:01:46.338Z,9.27
2023-03-04T02:04:14.482Z,9.03
2023-03-04T02:06:42.544Z,8.60
2023-03-04T02:09:10.808Z,9.03
2023-03-04T02:11:39.181Z,8.53
2023-03-04T02:14:07.372Z,8.60
2023-03-04T02:16:35.796Z,9.37
2023-03-04T02:19:05.808Z,8.73
2023-03-04T02:21:34.333Z,9.47
2023-03-04T02:24:07.237Z,9.27
2023-03-04T02:26:36.700Z,9.50
2023-03-04T02:29:05.100Z,9.67
2023-03-04T02:31:35.171Z,9.90
2023-03-04T02:34:04.632Z,9.77
2023-03-04T02:36:32.700Z,9.77
2023-03-04T02:39:03.570Z,9.70
2023-03-04T02:41:32.426Z,10.50
2023-03-04T02:44:02.863Z,11.23
2023-03-04T02:46:31.116Z,10.87
2023-03-04T02:48:59.180Z,11.57
2023-03-04T02:51:27.406Z,10.13
2023-03-04T02:53:55.491Z,10.80
2023-03-04T02:56:24.850Z,10.03
2023-03-04T02:58:52.940Z,11.50
2023-03-04T03:01:22.618Z,11.63
2023-03-04T03:03:50.813Z,12.20
2023-03-04T03:06:19.101Z,11.47
2023-03-04T03:08:47.616Z,12.00
2023-03-04T03:11:15.992Z,12.60
2023-03-04T03:13:44.056Z,11.87
2023-03-04T03:16:12.245Z,12.33
2023-03-04T03:18:41.839Z,11.83
2023-03-04T03:21:10.426Z,11.90
2023-03-04T03:23:38.829Z,12.73
2023-03-04T03:26:08.195Z,12.60
2023-03-04T03:28:36.271Z,13.70
2023-03-04T03:31:04.560Z,13.23
2023-03-04T03:33:32.638Z,12.57
2023-03-04T03:36:02.581Z,13.43
2023-03-04T03:38:30.682Z,13.30
2023-03-04T03:40:58.649Z,12.77
2023-03-04T03:43:26.806Z,14.10
2023-03-04T03:45:54.935Z,13.37
2023-03-04T03:48:23.405Z,13.53
2023-03-04T03:50:51.482Z,13.27
2023-03-04T03:53:21.155Z,12.70
2023-03-04T03:55:49.215Z,13.07
2023-03-04T03:58:17.236Z,14.20
2023-03-04T04:00:45.556Z,13.80
2023-03-04T04:03:14.316Z,12.40
2023-03-04T04:05:42.388Z,13.73
2023-03-04T04:08:12.782Z,13.53
2023-03-04T04:10:42.212Z,14.10
2023-03-04T04:13:10.238Z,13.53
2023-03-04T04:15:38.961Z,13.87
2023-03-04T04:18:07.093Z,14.63
2023-03-04T04:20:35.154Z,14.47
2023-03-04T04:23:03.227Z,14.90
2023-03-04T04:25:31.299Z,13.83
2023-03-04T04:28:00.925Z,14.57
2023-03-04T04:30:29.253Z,14.77
2023-03-04T04:32:57.326Z,13.40
2023-03-04T04:35:25.430Z,14.50
2023-03-04T04:37:53.511Z,14.73
2023-03-04T04:40:21.712Z,14.83
2023-03-04T04:42:49.985Z,15.30
2023-03-04T04:45:19.835Z,15.00
2023-03-04T04:47:47.977Z,15.50
2023-03-04T04:50:16.041Z,15.23
2023-03-04T04:52:44.087Z,14.83
2023-03-04T04:55:12.252Z,15.93
2023-03-04T04:57:40.590Z,15.47
2023-03-04T05:00:11.018Z,14.13
2023-03-04T05:02:40.445Z,14.97
2023-03-04T05:05:09.035Z,15.60
2023-03-04T05:07:37.064Z,13.83
2023-03-04T05:10:06.091Z,14.97
2023-03-04T05:12:34.154Z,14.57
2023-03-04T05:15:02.298Z,15.90
2023-03-04T05:17:30.320Z,15.07
2023-03-04T05:19:59.789Z,15.00
2023-03-04T05:22:27.832Z,14.77
2023-03-04T05:24:57.309Z,14.73
2023-03-04T05:27:25.457Z,14.87
2023-03-04T05:29:55.570Z,14.37
2023-03-04T05:32:23.682Z,14.60
2023-03-04T05:34:51.737Z,14.60
2023-03-04T05:37:21.486Z,14.97
2023-03-04T05:39:49.549Z,15.83
2023-03-04T05:42:17.628Z,14.90
2023-03-04T05:44:46.191Z,16.10
2023-03-04T05:47:14.168Z,16.93
2023-03-04T05:49:42.694Z,16.00
2023-03-04T05:52:11.273Z,16.87
2023-03-04T05:54:40.736Z,15.80
2023-03-04T05:57:08.833Z,15.07
2023-03-04T05:59:36.921Z,14.83
2023-03-04T06:02:05.024Z,16.87
2023-03-04T06:04:33.495Z,15.60
2023-03-04T06:07:01.541Z,15.20
2023-03-04T06:09:29.557Z,15.40
2023-03-04T06:11:59.003Z,15.37
2023-03-04T06:14:27.129Z,15.30
2023-03-04T06:16:55.468Z,15.20
2023-03-04T06:19:23.547Z,15.90
2023-03-04T06:21:51.568Z,14.73
2023-03-04T06:24:19.864Z,15.37
2023-03-04T06:26:47.962Z,15.53
2023-03-04T06:29:17.401Z,16.20
2023-03-04T06:31:45.749Z,15.67
2023-03-04T06:34:13.839Z,15.50
2023-03-04T06:36:41.886Z,15.47
2023-03-04T06:39:09.942Z,14.47
2023-03-04T06:41:38.005Z,14.77
2023-03-04T06:44:06.635Z,14.67
2023-03-04T06:46:36.375Z,15.10
2023-03-04T06:49:04.550Z,16.17
2023-03-04T06:51:32.568Z,14.80
2023-03-04T06:54:00.720Z,16.17
2023-03-04T06:56:28.805Z,15.67
2023-03-04T06:58:57.181Z,13.97
2023-03-04T07:01:26.180Z,13.97
2023-03-04T07:03:55.971Z,14.17
2023-03-04T07:06:24.930Z,13.47
2023-03-04T07:08:53.096Z,14.30
2023-03-04T07:11:22.097Z,12.47
2023-03-04T07:13:50.302Z,12.40
2023-03-04T07:16:20.092Z,12.37
2023-03-04T07:18:48.269Z,13.77
2023-03-04T07:21:17.895Z,12.77
2023-03-04T07:23:45.949Z,12.77
2023-03-04T07:26:14.363Z,11.93
2023-03-04T07:28:42.883Z,12.07
2023-03-04T07:31:12.683Z,13.87
2023-03-04T07:33:40.737Z,12.67
2023-03-04T07:36:08.956Z,12.07
2023-03-04T07:38:38.708Z,11.73
2023-03-04T07:41:06.799Z,12.50
2023-03-04T07:43:34.882Z,12.13
2023-03-04T07:46:03.078Z,12.67
2023-03-04T07:48:31.229Z,11.87
2023-03-04T07:51:09.672Z,11.97
2023-03-04T07:53:39.473Z,11.53
2023-03-04T07:56:08.520Z,11.83
2023-03-04T07:58:36.535Z,11.13
2023-03-04T08:01:10.586Z,11.20
2023-03-04T08:03:38.670Z,10.03
2023-03-04T08:06:07.758Z,10.73
2023-03-04T08:08:35.809Z,10.17
2023-03-04T08:11:06.973Z,10.90
2023-03-04T08:13:35.021Z,10.97
2023-03-04T08:16:03.220Z,10.83
2023-03-04T08:18:31.725Z,11.03
2023-03-04T08:20:59.816Z,10.17
2023-03-04T08:23:27.947Z,10.10
2023-03-04T08:25:56.008Z,11.33
2023-03-04T08:28:25.452Z,9.63
2023-03-04T08:30:56.814Z,11.87
2023-03-04T08:33:25.230Z,11.60
2023-03-04T08:35:54.122Z,10.53
2023-03-04T08:38:22.208Z,9.77
2023-03-04T08:40:54.039Z,9.53
2023-03-04T08:43:22.113Z,9.53
2023-03-04T08:45:51.919Z,8.33
2023-03-04T08:48:19.974Z,9.93
2023-03-04T08:50:48.248Z,8.50
2023-03-04T08:53:16.853Z,9.40
2023-03-04T08:55:44.985Z,9.47
2023-03-04T08:58:13.472Z,8.77
2023-03-04T09:00:43.980Z,9.40
2023-03-04T09:03:13.636Z,8.40
2023-03-04T09:05:41.822Z,8.33
2023-03-04T09:08:09.866Z,9.50
2023-03-04T09:10:37.919Z,8.93
2023-03-04T09:13:06.389Z,9.90
2023-03-04T09:15:35.624Z,11.50
2023-03-04T09:18:04.085Z,8.63
2023-03-04T09:20:33.519Z,7.77
2023-03-04T09:23:01.601Z,7.73
2023-03-04T09:25:29.693Z,8.13
2023-03-04T09:27:58.064Z,8.17
2023-03-04T09:30:28.028Z,7.80
2023-03-04T09:32:57.468Z,7.93
2023-03-04T09:35:25.636Z,9.50
2023-03-04T09:37:55.122Z,8.73
2023-03-04T09:40:24.439Z,8.67
2023-03-04T09:42:54.133Z,9.30
2023-03-04T09:45:23.277Z,8.70
2023-03-04T09:47:52.292Z,8.20
2023-03-04T09:50:20.404Z,7.43
2023-03-04T09:52:58.505Z,8.87
2023-03-04T09:55:30.266Z,8.33
2023-03-04T09:58:00.318Z,8.47
2023-03-04T10:00:33.970Z,7.77
2023-03-04T10:03:18.021Z,7.83
2023-03-04T10:05:51.228Z,7.47
2023-03-04T10:08:32.408Z,7.87
2023-03-04T10:11:02.112Z,7.80
2023-03-04T10:13:33.367Z,6.90
2023-03-04T10:16:01.487Z,6.70
2023-03-04T10:18:32.039Z,6.93
2023-03-04T10:21:02.049Z,6.20
2023-03-04T10:23:32.666Z,5.50
2023-03-04T10:26:00.877Z,6.70
2023-03-04T10:28:30.866Z,6.50
2023-03-04T10:31:00.735Z,5.37
2023-03-04T10:33:30.589Z,6.10
2023-03-04T10:36:02.553Z,5.33
2023-03-04T10:38:33.628Z,6.07
2023-03-04T10:41:01.850Z,5.20
2023-03-04T10:43:30.017Z,5.77
2023-03-04T10:45:58.813Z,5.13
2023-03-04T10:48:28.580Z,5.27
2023-03-04T10:50:56.835Z,5.53
2023-03-04T10:53:29.717Z,5.83
2023-03-04T10:55:59.190Z,4.90
2023-03-04T10:58:27.279Z,4.50
2023-03-04T11:01:03.809Z,5.27
2023-03-04T11:03:33.418Z,6.00
2023-03-04T11:06:06.745Z,6.63
2023-03-04T11:08:34.854Z,7.67
2023-03-04T11:11:04.382Z,5.73
2023-03-04T11:13:32.482Z,4.87
2023-03-04T11:16:02.190Z,5.40
2023-03-04T11:18:42.048Z,6.03
2023-03-04T11:21:10.478Z,5.07
2023-03-04T11:23:42.156Z,4.80
2023-03-04T11:26:13.949Z,6.23
2023-03-04T11:28:43.886Z,4.00
2023-03-04T11:31:15.790Z,5.20
2023-03-04T11:33:45.665Z,4.93
2023-03-04T11:36:30.222Z,5.00
2023-03-04T11:38:58.282Z,4.73
2023-03-04T11:41:32.160Z,4.23
2023-03-04T11:44:00.527Z,3.73
2023-03-04T11:46:55.420Z,4.10
2023-03-04T11:49:50.326Z,3.30
2023-03-04T11:52:22.413Z,3.50
2023-03-04T11:54:58.016Z,3.30
2023-03-04T11:57:32.477Z,3.27
2023-03-04T12:00:05.654Z,2.90
2023-03-04T12:02:42.106Z,3.40
2023-03-04T12:05:20.978Z,3.40
2023-03-04T12:08:27.885Z,3.17
2023-03-04T12:11:02.041Z,3.00
2023-03-04T12:13:48.262Z,2.97
2023-03-04T12:16:35.510Z,2.87
2023-03-04T12:19:12.356Z,2.83
2023-03-04T12:21:52.285Z,3.30
2023-03-04T12:24:39.741Z,3.13
2023-03-04T12:27:11.627Z,2.30
2023-03-04T12:29:43.131Z,3.00
2023-03-04T12:32:14.476Z,3.63
2023-03-04T12:35:02.524Z,4.03
2023-03-04T12:37:40.325Z,3.37
2023-03-04T12:40:18.459Z,3.40
2023-03-04T12:42:55.511Z,4.53
2023-03-04T12:45:26.628Z,3.47
2023-03-04T12:48:00.615Z,4.57
2023-03-04T12:50:38.836Z,3.83
2023-03-04T12:53:17.455Z,4.30
2023-03-04T12:55:46.652Z,4.70
2023-03-04T12:58:17.598Z,3.80
2023-03-04T13:00:51.890Z,4.90
2023-03-04T13:03:22.556Z,3.87
2023-03-04T13:06:00.749Z,3.57
2023-03-04T13:08:33.603Z,4.00
2023-03-04T13:11:03.580Z,3.77
2023-03-04T13:13:39.921Z,3.53
2023-03-04T13:16:30.159Z,3.97
2023-03-04T13:18:58.747Z,4.73
2023-03-04T13:21:28.148Z,3.90
2023-03-04T13:23:56.755Z,3.43
2023-03-04T13:26:29.342Z,2.90
2023-03-04T13:29:34.298Z,3.30
2023-03-04T13:32:05.414Z,3.03
2023-03-04T13:34:50.644Z,3.10
2023-03-04T13:37:33.411Z,2.80
2023-03-04T13:40:33.714Z,2.90
2023-03-04T13:43:26.563Z,2.80
2023-03-04T13:45:54.725Z,3.27
2023-03-04T13:48:32.674Z,3.60
2023-03-04T13:51:00.884Z,2.40
2023-03-04T13:53:42.559Z,3.00
2023-03-04T13:56:27.198Z,3.13
2023-03-04T13:59:17.970Z,3.03
2023-03-04T14:01:52.643Z,3.00
2023-03-04T14:04:23.216Z,3.03
2023-03-04T14:06:51.507Z,2.70
2023-03-04T14:09:21.932Z,2.80
2023-03-04T14:11:50.172Z,2.90
2023-03-04T14:14:19.912Z,2.63
2023-03-04T14:16:50.253Z,2.60
2023-03-04T14:19:22.391Z,2.00
2023-03-04T14:21:50.440Z,2.43
2023-03-04T14:24:19.545Z,3.00
2023-03-04T14:26:47.769Z,2.10
2023-03-04T14:29:23.267Z,2.10
2023-03-04T14:31:51.694Z,2.43
2023-03-04T14:34:25.136Z,2.27
2023-03-04T14:36:53.238Z,2.17
2023-03-04T14:39:21.355Z,3.17
2023-03-04T14:41:49.433Z,2.57
2023-03-04T14:44:22.432Z,2.57
2023-03-04T14:47:06.612Z,2.00
2023-03-04T14:49:37.402Z,2.10
2023-03-04T14:52:05.511Z,3.27
2023-03-04T14:54:35.643Z,5.43
2023-03-04T14:57:26.738Z,5.00
2023-03-04T14:59:55.058Z,5.17
2023-03-04T15:02:31.118Z,10.53
2023-03-04T15:05:01.863Z,22.63
2023-03-04T15:07:34.979Z,2.97
2023-03-04T15:10:04.637Z,2.20
2023-03-04T15:12:33.856Z,3.43
2023-03-04T15:15:02.499Z,3.80
2023-03-04T15:17:37.752Z,3.63
2023-03-04T15:20:31.342Z,4.80
2023-03-04T15:23:01.443Z,2.37
2023-03-04T15:25:29.693Z,2.43
2023-03-04T15:27:57.958Z,2.53
2023-03-04T15:30:27.558Z,3.23
2023-03-04T15:32:56.191Z,2.60
2023-03-04T15:35:24.602Z,5.10
2023-03-04T15:37:54.955Z,2.53
2023-03-04T15:40:28.046Z,2.63
2023-03-04T15:42:56.515Z,2.77
2023-03-04T15:45:25.633Z,2.87
2023-03-04T15:47:53.687Z,2.67
2023-03-04T15:50:22.837Z,2.67
2023-03-04T15:52:51.245Z,2.53
2023-03-04T15:55:21.439Z,4.07
2023-03-04T15:57:51.263Z,2.83
2023-03-04T16:00:20.001Z,4.10
2023-03-04T16:02:48.777Z,4.03
2023-03-04T16:05:18.226Z,3.80
2023-03-04T16:07:46.545Z,3.47
2023-03-04T16:10:22.607Z,4.10
2023-03-04T16:12:51.043Z,3.50
2023-03-04T16:15:20.085Z,3.80
2023-03-04T16:17:48.476Z,3.93
2023-03-04T16:20:17.656Z,4.27
2023-03-04T16:22:45.736Z,3.67
2023-03-04T16:25:13.851Z,3.90
2023-03-04T16:27:43.307Z,3.33
2023-03-04T16:30:14.871Z,3.93
2023-03-04T16:32:43.257Z,3.80
2023-03-04T16:35:11.383Z,3.47
2023-03-04T16:37:39.502Z,3.30
2023-03-04T16:40:08.947Z,3.20
2023-03-04T16:42:37.058Z,3.83
2023-03-04T16:45:07.889Z,4.00
2023-03-04T16:47:36.117Z,2.67
2023-03-04T16:50:04.512Z,2.37
2023-03-04T16:52:33.181Z,2.67
2023-03-04T16:55:01.360Z,2.57
2023-03-04T16:57:31.596Z,2.73
2023-03-04T17:00:01.505Z,2.63
2023-03-04T17:02:31.111Z,2.67
2023-03-04T17:04:59.472Z,3.30
2023-03-04T17:07:27.595Z,2.83
2023-03-04T17:09:55.696Z,2.30
2023-03-04T17:12:23.781Z,3.30
2023-03-04T17:14:52.159Z,3.00
2023-03-04T17:17:20.227Z,5.60
2023-03-04T17:19:50.071Z,5.30
2023-03-04T17:22:18.129Z,4.47
2023-03-04T17:24:46.216Z,3.87
2023-03-04T17:27:14.573Z,3.90
2023-03-04T17:29:42.655Z,4.70
2023-03-04T17:32:10.817Z,4.13
2023-03-04T17:34:38.950Z,4.07
2023-03-04T17:37:08.418Z,4.17
2023-03-04T17:39:36.503Z,4.20
2023-03-04T17:42:05.596Z,4.07
2023-03-04T17:44:33.719Z,4.23
2023-03-04T17:47:01.763Z,3.63
2023-03-04T17:49:29.836Z,4.23
2023-03-04T17:51:57.891Z,4.53
2023-03-04T17:54:28.285Z,4.07
2023-03-04T17:56:56.349Z,3.20
2023-03-04T17:59:24.500Z,3.77
2023-03-04T18:01:54.288Z,3.27
2023-03-04T18:04:22.613Z,3.80
2023-03-04T18:06:50.700Z,3.53
2023-03-04T18:09:19.090Z,3.47
2023-03-04T18:11:48.506Z,3.70
2023-03-04T18:14:16.605Z,3.63
2023-03-04T18:16:44.708Z,4.00
2023-03-04T18:19:12.806Z,3.50
2023-03-04T18:21:41.184Z,3.70
2023-03-04T18:24:09.735Z,4.40
2023-03-04T18:26:37.819Z,3.80
2023-03-04T18:29:07.265Z,4.13
2023-03-04T18:31:36.809Z,4.20
2023-03-04T18:34:04.998Z,3.80
2023-03-04T18:36:33.585Z,3.80
2023-03-04T18:39:04.628Z,4.83
2023-03-04T18:41:32.669Z,4.70
2023-03-04T18:44:00.788Z,5.00
2023-03-04T18:46:32.752Z,5.47
2023-03-04T18:49:03.403Z,10.27
2023-03-04T18:51:31.619Z,5.83
2023-03-04T18:53:59.746Z,3.87
2023-03-04T18:56:31.569Z,3.90
2023-03-04T18:58:59.676Z,3.47
2023-03-04T19:01:28.076Z,3.70
2023-03-04T19:03:59.142Z,4.00
2023-03-04T19:06:27.300Z,3.73
2023-03-04T19:08:55.358Z,5.00
2023-03-04T19:11:24.787Z,4.50
2023-03-04T19:13:52.855Z,4.50
2023-03-04T19:16:21.294Z,4.00
2023-03-04T19:18:49.361Z,4.23
2023-03-04T19:21:19.468Z,3.77
2023-03-04T19:23:47.552Z,4.13
2023-03-04T19:26:15.628Z,3.97
2023-03-04T19:28:43.700Z,3.80
2023-03-04T19:31:12.269Z,4.13
2023-03-04T19:33:40.863Z,4.40
2023-03-04T19:36:10.156Z,3.77
2023-03-04T19:38:39.576Z,3.77
2023-03-04T19:41:11.276Z,4.20
2023-03-04T19:43:39.700Z,4.07
2023-03-04T19:46:08.800Z,4.20
2023-03-04T19:48:37.597Z,5.13
2023-03-04T19:51:05.954Z,3.87
2023-03-04T19:53:34.973Z,4.33
2023-03-04T19:56:04.950Z,4.33
2023-03-04T19:58:33.007Z,4.93
2023-03-04T20:01:01.078Z,5.33
2023-03-04T20:03:29.204Z,5.93
2023-03-04T20:06:03.709Z,5.87
2023-03-04T20:08:31.789Z,5.10
2023-03-04T20:11:00.199Z,4.77
2023-03-04T20:13:29.716Z,4.63
2023-03-04T20:15:57.844Z,4.40
2023-03-04T20:18:25.931Z,4.40
2023-03-04T20:20:57.249Z,6.17
2023-03-04T20:23:27.145Z,5.97
2023-03-04T20:25:57.022Z,5.07
2023-03-04T20:28:25.280Z,4.40
2023-03-04T20:30:54.760Z,4.67
2023-03-04T20:33:22.835Z,4.50
2023-03-04T20:35:51.060Z,4.33
2023-03-04T20:38:19.443Z,4.43
2023-03-04T20:40:47.465Z,4.13
2023-03-04T20:43:15.553Z,4.13
2023-03-04T20:45:43.662Z,4.13
2023-03-04T20:48:13.113Z,4.30
2023-03-04T20:50:41.634Z,4.40
2023-03-04T20:53:09.671Z,4.50
2023-03-04T20:55:37.740Z,4.57
2023-03-04T20:58:07.590Z,3.97
2023-03-04T21:00:38.433Z,4.10
2023-03-04T21:03:06.536Z,4.73
2023-03-04T21:05:36.011Z,4.67
2023-03-04T21:08:04.108Z,4.90
2023-03-04T21:10:32.169Z,4.30
2023-03-04T21:13:00.216Z,4.03
2023-03-04T21:15:28.289Z,4.03
2023-03-04T21:17:56.642Z,4.50
2023-03-04T21:20:24.811Z,4.20
2023-03-04T21:22:54.277Z,3.80
2023-03-04T21:25:23.493Z,4.83
2023-03-04T21:27:51.512Z,4.07
2023-03-04T21:30:19.977Z,4.53
2023-03-04T21:32:48.161Z,3.87
2023-03-04T21:35:16.317Z,4.13
2023-03-04T21:37:44.390Z,3.43
2023-03-04T21:40:14.657Z,3.83
2023-03-04T21:42:42.764Z,3.83
2023-03-04T21:45:11.981Z,4.90
2023-03-04T21:47:40.384Z,4.30
2023-03-04T21:50:09.323Z,3.80
2023-03-04T21:52:37.480Z,4.43
2023-03-04T21:55:06.148Z,3.77
2023-03-04T21:57:35.617Z,4.37
2023-03-04T22:00:05.484Z,3.60
2023-03-04T22:02:39.771Z,3.80
2023-03-04T22:05:08.277Z,3.83
2023-03-04T22:07:36.395Z,3.83
2023-03-04T22:10:06.693Z,3.77
2023-03-04T22:12:36.437Z,3.00
2023-03-04T22:15:04.751Z,3.20
2023-03-04T22:17:32.868Z,3.53
2023-03-04T22:20:02.615Z,3.13
2023-03-04T22:22:31.323Z,3.63
2023-03-04T22:25:00.500Z,3.00
2023-03-04T22:27:28.560Z,3.27
2023-03-04T22:29:58.403Z,3.50
2023-03-04T22:32:26.583Z,3.70
2023-03-04T22:34:54.660Z,3.40
2023-03-04T22:37:22.765Z,3.03
2023-03-04T22:39:51.104Z,3.20
2023-03-04T22:42:19.200Z,3.50
2023-03-04T22:44:47.296Z,3.13
2023-03-04T22:47:16.719Z,3.30
2023-03-04T22:49:47.485Z,3.03
2023-03-04T22:52:15.648Z,3.10
2023-03-04T22:54:44.022Z,3.10
2023-03-04T22:57:12.070Z,3.30
2023-03-04T22:59:40.118Z,3.67
2023-03-04T23:02:08.369Z,3.50
2023-03-04T23:04:37.813Z,2.83
2023-03-04T23:07:06.385Z,2.80
2023-03-04T23:09:34.465Z,3.13
2023-03-04T23:12:02.664Z,4.40
2023-03-04T23:14:30.737Z,3.37
2023-03-04T23:16:59.066Z,2.90
2023-03-04T23:19:27.173Z,3.00
2023-03-04T23:21:56.871Z,3.30
2023-03-04T23:24:26.682Z,3.07
2023-03-04T23:26:54.746Z,2.93
2023-03-04T23:29:23.059Z,2.93
2023-03-04T23:31:51.492Z,2.70
2023-03-04T23:34:19.850Z,2.47
2023-03-04T23:36:47.861Z,3.17
2023-03-04T23:39:17.304Z,2.73
2023-03-04T23:41:45.434Z,3.03
2023-03-04T23:44:13.808Z,2.93
2023-03-04T23:46:41.907Z,2.93
2023-03-04T23:49:10.520Z,3.13
2023-03-04T23:51:40.819Z,2.90
2023-03-04T23:54:08.928Z,2.40
2023-03-04T23:56:38.395Z,2.93
2023-03-04T23:59:07.708Z,2.70
